Time;durP1;ratioP1;P1;durP2;ratioP2;P2;SDS_P1;SDS_P2;PMS_P1;PMS_P2;Temp;Humidity;BMP_temperature;BMP_pressure;BME280_temperature;BME280_humidity;BME280_pressure;Samples;Min_cycle;Max_cycle;Signal;HPM_P1;HPM_P2
2022/07/23 00:00:00;;;;;;;8.25;4.85;;;;;;;18.20;71.42;101721.09;5115901;27;20032;-62
2022/07/23 00:02:27;;;;;;;7.45;4.03;;;;;;;18.31;70.93;101737.25;5114839;27;20031;-62
2022/07/23 00:04:53;;;;;;;6.85;4.20;;;;;;;18.29;70.92;101738.34;5133308;27;20031;-62
2022/07/23 00:07:19;;;;;;;6.35;4.22;;;;;;;18.39;70.71;101739.31;5096080;27;20509;-62
2022/07/23 00:09:45;;;;;;;5.38;4.00;;;;;;;18.30;70.96;101742.78;5133360;27;20027;-62
2022/07/23 00:12:11;;;;;;;5.90;3.80;;;;;;;18.28;71.29;101736.66;5132617;27;20019;-62
2022/07/23 00:14:36;;;;;;;5.13;4.05;;;;;;;18.32;71.21;101738.97;5096292;27;20696;-62
2022/07/23 00:17:05;;;;;;;8.77;4.70;;;;;;;18.15;71.69;101742.19;5114562;27;20031;-62
2022/07/23 00:19:30;;;;;;;5.72;3.90;;;;;;;18.17;71.85;101732.13;5133824;27;20023;-62
2022/07/23 00:21:55;;;;;;;6.05;4.20;;;;;;;18.08;71.85;101736.41;5114216;27;20055;-62
2022/07/23 00:24:21;;;;;;;7.28;4.22;;;;;;;18.05;71.72;101730.41;5131863;27;20485;-62
2022/07/23 00:26:46;;;;;;;5.25;3.72;;;;;;;18.11;71.66;101740.69;5132334;27;20333;-62
2022/07/23 00:29:14;;;;;;;5.68;3.90;;;;;;;18.09;71.50;101742.69;5115575;27;20371;-62
2022/07/23 00:31:40;;;;;;;6.05;4.18;;;;;;;18.11;71.24;101736.16;5131868;27;20027;-62
2022/07/23 00:34:06;;;;;;;4.57;4.10;;;;;;;18.09;70.99;101721.13;5115276;27;20129;-62
2022/07/23 00:36:32;;;;;;;4.00;3.58;;;;;;;18.07;70.89;101726.63;5114317;27;20027;-62
2022/07/23 00:38:57;;;;;;;7.80;4.30;;;;;;;18.08;71.04;101736.41;5113031;27;20034;-62
2022/07/23 00:41:23;;;;;;;5.75;3.97;;;;;;;18.00;71.52;101730.81;5114713;27;20031;-62
2022/07/23 00:43:48;;;;;;;4.68;3.63;;;;;;;18.06;70.75;101734.81;5114773;27;20494;-62
2022/07/23 00:46:19;;;;;;;5.85;4.20;;;;;;;17.85;71.60;101713.19;5113106;27;20062;-62
2022/07/23 00:48:45;;;;;;;5.78;4.07;;;;;;;17.92;71.18;101726.03;5131486;27;20026;-62
2022/07/23 00:51:10;;;;;;;8.80;4.78;;;;;;;17.90;71.47;101727.97;5131174;27;20023;-62
2022/07/23 00:53:36;;;;;;;6.68;5.05;;;;;;;17.74;71.92;101726.63;5097514;27;20053;-62
2022/07/23 00:56:02;;;;;;;6.85;4.20;;;;;;;17.88;71.61;101721.88;5096206;27;20035;-62
2022/07/23 00:58:31;;;;;;;8.63;4.57;;;;;;;17.77;72.12;101723.69;5132398;27;20468;-62
2022/07/23 01:00:56;;;;;;;5.20;4.00;;;;;;;17.69;71.71;101721.59;5133197;27;20027;-62
2022/07/23 01:03:23;;;;;;;6.93;4.28;;;;;;;17.73;71.85;101724.88;5132445;27;20034;-62
2022/07/23 01:05:48;;;;;;;5.68;4.32;;;;;;;17.72;71.94;101729.41;5078825;27;21297;-62
2022/07/23 01:08:14;;;;;;;7.22;4.65;;;;;;;17.77;71.60;101726.38;5131100;27;20105;-62
2022/07/23 01:10:40;;;;;;;4.88;4.38;;;;;;;17.73;71.93;101725.75;5131345;27;20041;-61
2022/07/23 01:13:08;;;;;;;5.53;4.43;;;;;;;17.62;72.04;101725.75;5132669;27;20020;-61
2022/07/23 01:15:35;;;;;;;5.13;3.95;;;;;;;17.67;71.90;101724.38;5131993;27;20023;-61
2022/07/23 01:18:02;;;;;;;7.15;3.90;;;;;;;17.55;72.31;101721.81;5113754;27;20389;-62
2022/07/23 01:20:28;;;;;;;7.15;4.95;;;;;;;17.46;72.66;101707.25;5113781;27;20019;-62
2022/07/23 01:22:54;;;;;;;6.90;4.22;;;;;;;17.39;72.49;101700.66;5132471;27;20375;-62
2022/07/23 01:25:20;;;;;;;5.35;4.60;;;;;;;17.37;72.93;101719.59;5112737;27;20030;-62
2022/07/23 01:27:45;;;;;;;6.45;4.68;;;;;;;17.25;73.25;101721.41;5132204;27;20084;-62
2022/07/23 01:30:12;;;;;;;7.93;4.75;;;;;;;17.30;73.03;101721.06;5130434;27;20435;-62
2022/07/23 01:32:38;;;;;;;6.28;5.10;;;;;;;17.23;73.27;101725.19;5114383;27;20462;-62
2022/07/23 01:35:05;;;;;;;6.95;4.53;;;;;;;17.17;73.49;101720.28;5131933;27;21892;-62
2022/07/23 01:37:35;;;;;;;7.88;4.90;;;;;;;17.17;73.70;101715.75;5085935;27;20420;-62
2022/07/23 01:40:00;;;;;;;8.80;5.18;;;;;;;17.24;73.08;101708.94;5131219;27;20027;-62
2022/07/23 01:42:26;;;;;;;6.78;4.82;;;;;;;17.25;73.00;101707.97;5130586;27;20031;-62
2022/07/23 01:44:51;;;;;;;5.65;4.55;;;;;;;17.17;73.42;101715.75;5112451;27;20069;-62
2022/07/23 01:47:17;;;;;;;6.63;5.05;;;;;;;17.19;73.10;101710.28;5112457;28;20520;-62
2022/07/23 01:49:43;;;;;;;9.73;5.03;;;;;;;17.12;73.34;101715.28;5130772;27;20042;-62
2022/07/23 01:52:13;;;;;;;6.32;5.07;;;;;;;17.00;73.61;101713.50;5111444;27;20949;-62
2022/07/23 01:54:39;;;;;;;7.22;4.70;;;;;;;16.97;73.64;101706.56;5130707;27;20035;-62
2022/07/23 01:57:05;;;;;;;5.13;4.70;;;;;;;17.07;73.29;101706.69;5096642;27;20072;-62
2022/07/23 01:59:31;;;;;;;5.15;4.65;;;;;;;17.02;73.43;101706.19;5130728;27;20027;-62
2022/07/23 02:01:56;;;;;;;6.68;4.78;;;;;;;17.01;73.63;101707.16;5130419;27;20041;-62
2022/07/23 02:04:24;;;;;;;6.72;5.15;;;;;;;16.80;74.37;101706.97;5096648;27;20027;-62
2022/07/23 02:06:52;;;;;;;5.57;4.75;;;;;;;16.71;74.41;101703.13;5111659;27;20019;-62
2022/07/23 02:09:18;;;;;;;5.90;4.90;;;;;;;16.64;74.54;101703.69;5128052;27;20289;-62
2022/07/23 02:11:43;;;;;;;6.63;4.93;;;;;;;16.59;74.15;101663.75;5131669;27;20374;-62
2022/07/23 02:14:12;;;;;;;5.18;4.68;;;;;;;16.67;74.50;101698.94;5128168;27;20031;-62
2022/07/23 02:16:41;;;;;;;6.47;5.03;;;;;;;16.71;73.91;101700.44;5131501;27;20434;-62
2022/07/23 02:19:07;;;;;;;6.07;5.05;;;;;;;16.69;74.23;101701.50;5128975;27;20034;-62
2022/07/23 02:21:32;;;;;;;5.88;5.28;;;;;;;16.71;74.16;101704.97;5112265;27;20559;-62
2022/07/23 02:23:58;;;;;;;6.28;5.45;;;;;;;16.67;74.56;101704.31;5096720;27;20035;-62
2022/07/23 02:26:26;;;;;;;8.20;5.50;;;;;;;16.43;74.94;101693.56;5130420;27;20441;-62
2022/07/23 02:28:54;;;;;;;6.15;5.57;;;;;;;16.52;74.90;101700.94;5131496;27;20083;-62
2022/07/23 02:31:20;;;;;;;6.13;5.43;;;;;;;16.58;74.63;101697.78;5111255;27;20019;-61
2022/07/23 02:33:46;;;;;;;6.00;5.38;;;;;;;16.55;74.47;101691.81;5130338;27;20023;-62
2022/07/23 02:36:14;;;;;;;6.05;5.45;;;;;;;16.41;75.18;101698.19;5130636;27;20115;-62
2022/07/23 02:38:40;;;;;;;6.35;5.45;;;;;;;16.46;74.92;101693.34;5130008;27;20023;-62
2022/07/23 02:41:06;;;;;;;7.68;5.63;;;;;;;16.46;74.99;101690.66;5130150;27;20031;-62
2022/07/23 02:43:31;;;;;;;6.53;5.70;;;;;;;16.29;75.32;101694.59;5130358;27;20385;-62
2022/07/23 02:45:58;;;;;;;6.22;5.63;;;;;;;16.22;75.66;101698.69;5131279;27;20431;-62
2022/07/23 02:48:23;;;;;;;6.45;5.85;;;;;;;16.19;76.00;101693.56;5112578;27;20027;-62
2022/07/23 02:50:49;;;;;;;6.18;5.57;;;;;;;16.16;76.14;101701.84;5129887;27;20096;-62
2022/07/23 02:53:17;;;;;;;7.78;6.10;;;;;;;16.21;75.99;101707.72;5128190;28;20019;-62
2022/07/23 02:55:43;;;;;;;9.57;6.20;;;;;;;16.23;75.81;101707.59;5129650;28;20055;-61
2022/07/23 02:58:08;;;;;;;6.82;6.22;;;;;;;16.16;75.63;101709.88;5112034;27;20042;-61
2022/07/23 03:00:34;;;;;;;8.82;7.10;;;;;;;16.18;75.39;101702.59;5134303;27;20026;-62
2022/07/23 03:03:01;;;;;;;5.97;5.38;;;;;;;16.10;75.57;101711.19;5135491;27;20023;-62
2022/07/23 03:05:26;;;;;;;7.30;6.07;;;;;;;16.15;75.88;101707.31;5116156;27;20387;-62
2022/07/23 03:07:52;;;;;;;6.65;5.75;;;;;;;16.15;75.76;101707.31;5117539;27;20035;-62
2022/07/23 03:10:17;;;;;;;8.15;6.50;;;;;;;16.22;75.50;101712.13;5081599;27;20070;-61
2022/07/23 03:12:43;;;;;;;7.72;6.18;;;;;;;16.25;75.55;101713.72;5116122;27;20394;-61
2022/07/23 03:15:11;;;;;;;7.05;6.35;;;;;;;15.97;76.31;101713.06;5130839;27;20186;-61
2022/07/23 03:17:36;;;;;;;7.30;6.00;;;;;;;16.09;75.60;101711.31;5116819;27;20046;-62
2022/07/23 03:20:02;;;;;;;11.48;6.72;;;;;;;16.05;75.80;101717.84;5091270;27;20032;-62
2022/07/23 03:22:27;;;;;;;9.35;6.45;;;;;;;16.06;75.78;101714.19;5134573;27;20034;-62
2022/07/23 03:24:56;;;;;;;7.57;6.88;;;;;;;16.05;75.68;101709.81;5083263;27;20483;-62
2022/07/23 03:27:23;;;;;;;7.70;6.40;;;;;;;16.03;75.56;101715.31;5116394;27;20030;-62
2022/07/23 03:29:52;;;;;;;9.32;7.28;;;;;;;16.10;75.54;101721.94;5134026;27;20019;-61
2022/07/23 03:32:19;;;;;;;9.35;7.03;;;;;;;16.04;75.44;101729.56;5135054;27;20023;-62
2022/07/23 03:34:44;;;;;;;8.23;7.00;;;;;;;16.06;75.30;101719.56;5134648;27;20038;-62
2022/07/23 03:37:10;;;;;;;8.63;7.32;;;;;;;15.90;75.81;101727.88;5097690;27;20406;-62
2022/07/23 03:39:38;;;;;;;13.15;7.70;;;;;;;15.94;75.57;101733.88;5115414;27;20435;-62
2022/07/23 03:42:03;;;;;;;13.60;7.97;;;;;;;15.81;75.83;101723.16;5116960;27;20057;-62
2022/07/23 03:44:28;;;;;;;9.45;8.05;;;;;;;15.77;76.14;101724.34;5115536;27;20470;-62
2022/07/23 03:46:54;;;;;;;11.20;7.28;;;;;;;15.89;75.63;101727.00;5133955;27;20079;-62
2022/07/23 03:49:22;;;;;;;10.13;8.10;;;;;;;15.80;76.13;101726.81;5133206;27;20027;-62
2022/07/23 03:51:47;;;;;;;10.52;8.13;;;;;;;15.78;75.92;101716.19;5133760;27;20050;-62
2022/07/23 03:54:13;;;;;;;12.07;8.32;;;;;;;15.87;75.92;101736.13;5114385;27;20081;-61
2022/07/23 03:56:39;;;;;;;10.98;8.38;;;;;;;15.76;76.03;101727.97;5115030;27;20113;-61
2022/07/23 03:59:05;;;;;;;9.98;9.07;;;;;;;15.78;76.09;101728.75;5098026;27;20031;-61
2022/07/23 04:01:30;;;;;;;10.40;9.00;;;;;;;15.79;76.07;101728.63;5133686;27;20042;-61
2022/07/23 04:03:55;;;;;;;10.23;9.18;;;;;;;15.59;76.33;101724.66;5132257;27;22458;-61
2022/07/23 04:06:24;;;;;;;10.60;8.75;;;;;;;15.67;76.28;101721.41;5134196;27;20498;-62
2022/07/23 04:08:52;;;;;;;9.98;8.98;;;;;;;15.58;76.91;101733.66;5132524;27;20029;-61
2022/07/23 04:11:17;;;;;;;16.00;10.18;;;;;;;15.70;76.21;101729.28;5114445;27;20031;-61
2022/07/23 04:13:43;;;;;;;13.45;9.55;;;;;;;15.70;76.15;101734.63;5133308;27;20038;-62
2022/07/23 04:16:09;;;;;;;10.43;9.32;;;;;;;15.66;76.66;101742.00;5131945;27;20076;-62
2022/07/23 04:18:35;;;;;;;10.93;9.65;;;;;;;15.67;76.71;101742.88;5131065;27;20023;-61
2022/07/23 04:21:00;;;;;;;12.50;10.32;;;;;;;15.66;76.86;101735.81;5086350;27;20088;-61
2022/07/23 04:23:25;;;;;;;11.55;10.25;;;;;;;15.66;76.82;101735.81;5115502;27;20103;-62
2022/07/23 04:25:51;;;;;;;11.27;9.48;;;;;;;15.75;76.66;101747.75;5134022;27;20022;-62
2022/07/23 04:28:17;;;;;;;10.77;9.48;;;;;;;15.69;76.92;101748.16;5115976;27;20520;-62
2022/07/23 04:30:43;;;;;;;12.07;9.80;;;;;;;15.74;76.94;101748.72;5134092;27;20080;-62
2022/07/23 04:33:08;;;;;;;11.65;10.48;;;;;;;15.72;77.20;101751.50;5115703;27;20035;-62
2022/07/23 04:35:34;;;;;;;12.30;10.32;;;;;;;15.73;77.15;101755.03;5132644;27;20030;-62
2022/07/23 04:38:00;;;;;;;14.43;11.25;;;;;;;15.66;77.71;101760.78;5132323;27;20471;-62
2022/07/23 04:40:29;;;;;;;14.30;11.32;;;;;;;15.70;77.60;101760.59;5132867;27;20054;-62
2022/07/23 04:42:54;;;;;;;11.93;10.40;;;;;;;15.76;77.92;101757.50;5133661;27;20087;-62
2022/07/23 04:45:20;;;;;;;11.90;10.52;;;;;;;15.76;77.94;101763.72;5133558;27;20027;-62
2022/07/23 04:47:47;;;;;;;12.68;10.68;;;;;;;15.72;78.01;101753.31;5115760;27;20486;-62
2022/07/23 04:50:17;;;;;;;14.02;11.57;;;;;;;15.73;78.37;101769.28;5133332;27;20023;-61
2022/07/23 04:52:43;;;;;;;13.55;11.70;;;;;;;15.80;77.83;101772.41;5132378;27;20015;-62
2022/07/23 04:55:09;;;;;;;12.07;10.77;;;;;;;15.85;78.32;101776.50;5130973;27;20051;-62
2022/07/23 04:57:35;;;;;;;12.15;10.95;;;;;;;15.81;78.83;101771.44;5131036;27;20378;-62
2022/07/23 05:00:01;;;;;;;13.32;11.23;;;;;;;15.89;78.42;101763.72;5113254;27;20031;-62
2022/07/23 05:02:26;;;;;;;14.02;11.13;;;;;;;15.86;78.66;101775.53;5133682;27;20106;-61
2022/07/23 05:04:52;;;;;;;14.82;12.70;;;;;;;15.93;78.45;101767.03;5114782;27;20076;-62
2022/07/23 05:07:17;;;;;;;15.18;11.65;;;;;;;15.92;78.79;101768.88;5114956;27;20039;-62
2022/07/23 05:09:43;;;;;;;13.05;11.68;;;;;;;15.88;78.80;101775.41;5133063;27;20030;-61
2022/07/23 05:12:11;;;;;;;15.32;12.32;;;;;;;15.94;78.88;101772.28;5133488;27;20019;-61
2022/07/23 05:14:37;;;;;;;15.43;11.27;;;;;;;15.91;79.11;101769.81;5132087;27;20027;-61
2022/07/23 05:17:02;;;;;;;13.23;11.48;;;;;;;15.96;78.80;101767.66;5115251;27;20042;-62
2022/07/23 05:19:28;;;;;;;17.42;12.20;;;;;;;15.91;78.67;101759.09;5114950;27;20080;-62
2022/07/23 05:21:53;;;;;;;13.10;11.50;;;;;;;15.98;79.11;101775.63;5113566;27;20039;-62
2022/07/23 05:24:18;;;;;;;13.10;11.38;;;;;;;16.08;78.94;101765.94;5132205;27;20039;-62
2022/07/23 05:26:44;;;;;;;13.10;11.05;;;;;;;16.15;78.59;101772.59;5132193;27;20498;-62
2022/07/23 05:29:10;;;;;;;14.38;11.75;;;;;;;16.14;79.00;101773.53;5131655;27;20030;-62
2022/07/23 05:31:35;;;;;;;15.02;11.60;;;;;;;16.24;78.25;101779.13;5114368;27;20038;-62
2022/07/23 05:34:01;;;;;;;14.70;11.52;;;;;;;16.37;77.95;101785.31;5132141;27;20015;-62
2022/07/23 05:36:27;;;;;;;11.57;10.48;;;;;;;16.39;77.96;101783.38;5114570;27;20447;-62
2022/07/23 05:38:53;;;;;;;14.85;11.43;;;;;;;16.38;78.44;101783.47;5114816;27;20031;-62
2022/07/23 05:41:19;;;;;;;14.55;10.35;;;;;;;16.49;77.78;101781.72;5113749;27;20088;-61
2022/07/23 05:43:47;;;;;;;14.43;11.50;;;;;;;16.51;78.15;101785.19;5129491;27;20035;-61
2022/07/23 05:46:12;;;;;;;12.57;10.63;;;;;;;16.67;77.65;101787.56;5097544;27;20043;-61
2022/07/23 05:48:38;;;;;;;13.15;10.60;;;;;;;16.66;77.82;101787.72;5112811;27;20082;-61
2022/07/23 05:51:06;;;;;;;13.23;11.07;;;;;;;16.78;77.64;101795.75;5113751;27;20035;-62
2022/07/23 05:53:32;;;;;;;13.93;10.82;;;;;;;16.86;77.43;101799.69;5132000;27;20054;-62
2022/07/23 05:55:58;;;;;;;13.93;10.45;;;;;;;16.96;76.62;101806.09;5131214;27;20039;-62
2022/07/23 05:58:24;;;;;;;11.55;10.20;;;;;;;16.97;76.03;101795.25;5132161;27;20023;-62
2022/07/23 06:00:51;;;;;;;11.90;9.98;;;;;;;17.10;75.91;101805.91;5131262;27;20035;-62
2022/07/23 06:03:16;;;;;;;12.23;10.00;;;;;;;17.15;76.31;101803.75;5110368;27;20046;-62
2022/07/23 06:05:41;;;;;;;10.98;8.95;;;;;;;17.25;75.08;101809.28;5111607;27;20363;-62
2022/07/23 06:08:07;;;;;;;10.70;9.27;;;;;;;17.33;74.27;101808.72;5131813;27;20038;-62
2022/07/23 06:10:32;;;;;;;10.48;8.73;;;;;;;17.41;73.71;101817.91;5130067;27;20113;-62
2022/07/23 06:12:58;;;;;;;9.32;8.32;;;;;;;17.53;73.01;101815.22;5131355;27;20202;-61
2022/07/23 06:15:24;;;;;;;11.05;9.00;;;;;;;17.56;72.70;101812.28;5096696;27;20448;-61
2022/07/23 06:17:50;;;;;;;9.85;7.82;;;;;;;17.76;71.73;101822.38;5131967;27;20039;-61
2022/07/23 06:20:17;;;;;;;9.32;7.50;;;;;;;17.84;71.39;101817.28;5131813;27;20071;-62
2022/07/23 06:22:43;;;;;;;10.75;8.23;;;;;;;17.88;72.25;101812.50;5113420;27;20034;-62
2022/07/23 06:25:08;;;;;;;7.80;7.07;;;;;;;17.99;72.96;101820.59;5129545;27;20397;-63
2022/07/23 06:27:34;;;;;;;11.68;7.30;;;;;;;18.04;71.87;101820.25;5131530;27;20035;-62
2022/07/23 06:30:00;;;;;;;8.27;6.63;;;;;;;18.15;71.17;101812.19;5112507;27;20402;-62
2022/07/23 06:32:28;;;;;;;7.93;7.13;;;;;;;18.12;70.53;101807.91;5111080;27;20027;-62
2022/07/23 06:34:53;;;;;;;8.23;7.35;;;;;;;18.21;70.60;101813.53;5096983;28;20043;-62
2022/07/23 06:37:21;;;;;;;7.43;6.60;;;;;;;18.33;69.88;101820.63;5096235;28;20027;-62
2022/07/23 06:39:49;;;;;;;7.13;6.43;;;;;;;18.30;68.82;101815.50;5096422;27;20035;-62
2022/07/23 06:42:15;;;;;;;9.07;7.53;;;;;;;18.45;68.39;101818.78;5129784;27;20393;-62
2022/07/23 06:44:40;;;;;;;10.35;7.13;;;;;;;18.51;67.92;101820.97;5113234;27;20033;-62
2022/07/23 06:47:08;;;;;;;6.38;5.70;;;;;;;18.55;68.60;101831.38;5130886;27;20493;-62
2022/07/23 06:49:36;;;;;;;9.90;7.00;;;;;;;18.60;68.39;101822.91;5112859;27;20546;-62
2022/07/23 06:52:02;;;;;;;9.30;6.30;;;;;;;18.68;68.35;101823.16;5130632;27;20102;-62
2022/07/23 06:54:28;;;;;;;7.70;6.53;;;;;;;18.78;67.30;101831.38;5112154;27;20565;-62
2022/07/23 06:56:54;;;;;;;7.57;5.35;;;;;;;18.84;66.98;101830.84;5095864;28;20114;-62
2022/07/23 06:59:19;;;;;;;7.88;5.85;;;;;;;18.91;66.67;101820.41;5130860;28;20047;-62
2022/07/23 07:01:44;;;;;;;5.60;5.00;;;;;;;18.98;65.60;101824.34;5131500;28;20072;-62
2022/07/23 07:04:10;;;;;;;6.78;5.68;;;;;;;18.99;65.48;101823.34;5112802;28;20474;-61
2022/07/23 07:06:35;;;;;;;10.02;5.57;;;;;;;19.06;65.95;101821.88;5111286;28;20043;-61
2022/07/23 07:09:01;;;;;;;6.40;5.72;;;;;;;19.06;65.37;101825.41;5111468;28;20387;-61
2022/07/23 07:11:26;;;;;;;6.72;5.93;;;;;;;19.17;65.65;101829.88;5130608;28;20035;-61
2022/07/23 07:13:52;;;;;;;8.65;5.72;;;;;;;19.15;64.82;101818.38;5113169;28;20023;-61
2022/07/23 07:16:20;;;;;;;5.50;4.75;;;;;;;19.22;64.44;101826.81;5113415;28;20037;-60
2022/07/23 07:18:49;;;;;;;6.22;5.63;;;;;;;19.21;65.77;101827.81;5113706;28;20046;-61
2022/07/23 07:21:14;;;;;;;7.40;5.20;;;;;;;19.24;65.01;101827.56;5131374;28;20031;-61
2022/07/23 07:23:40;;;;;;;7.28;5.68;;;;;;;19.27;65.24;101830.84;5060824;28;20290;-61
2022/07/23 07:26:05;;;;;;;7.07;5.82;;;;;;;19.36;64.44;101826.50;5129816;28;20027;-61
2022/07/23 07:28:31;;;;;;;7.22;5.22;;;;;;;19.52;64.51;101837.69;5131546;28;20055;-61
2022/07/23 07:30:56;;;;;;;11.07;5.63;;;;;;;19.55;63.53;101841.13;5113473;28;20155;-61
2022/07/23 07:33:22;;;;;;;7.55;6.05;;;;;;;19.56;64.04;101843.72;5095206;28;20024;-61
2022/07/23 07:35:48;;;;;;;7.00;5.75;;;;;;;19.64;64.89;101849.28;5112128;28;20039;-61
2022/07/23 07:38:13;;;;;;;8.07;5.07;;;;;;;19.73;64.04;101848.53;5112157;28;20043;-61
2022/07/23 07:40:39;;;;;;;9.05;5.93;;;;;;;19.74;62.81;101838.59;5111515;28;20084;-60
2022/07/23 07:43:04;;;;;;;6.00;5.32;;;;;;;19.79;62.02;101833.63;5110821;28;20031;-59
2022/07/23 07:45:30;;;;;;;9.35;5.80;;;;;;;19.83;62.89;101834.25;5132883;27;20035;-59
2022/07/23 07:47:56;;;;;;;6.18;5.20;;;;;;;19.85;61.49;101841.22;5135321;27;20027;-59
2022/07/23 07:50:21;;;;;;;6.20;4.60;;;;;;;19.93;60.53;101827.91;5134123;27;20047;-59
2022/07/23 07:52:49;;;;;;;7.07;5.13;;;;;;;19.98;60.99;101834.78;5115396;27;20030;-59
2022/07/23 07:55:15;;;;;;;7.05;4.97;;;;;;;20.05;60.68;101835.94;5099178;27;20043;-59
2022/07/23 07:57:41;;;;;;;8.20;5.38;;;;;;;20.11;61.00;101840.78;5134775;27;20025;-59
2022/07/23 08:00:08;;;;;;;9.23;5.35;;;;;;;20.21;60.51;101830.91;5134585;27;20027;-61
2022/07/23 08:02:44;;;;;;;6.35;5.25;;;;;;;20.37;60.00;101846.59;5133663;27;20054;-61
2022/07/23 08:05:13;;;;;;;4.90;4.30;;;;;;;20.30;59.13;101834.63;5113640;27;20404;-60
2022/07/23 08:07:43;;;;;;;9.45;4.18;;;;;;;20.31;57.72;101848.00;5116603;27;20034;-61
2022/07/23 08:10:09;;;;;;;6.60;4.00;;;;;;;20.31;57.29;101839.88;5115003;27;20126;-60
2022/07/23 08:12:44;;;;;;;5.68;3.95;;;;;;;20.32;58.20;101848.84;5115426;27;20488;-61
2022/07/23 08:15:10;;;;;;;6.95;5.13;;;;;;;20.25;56.37;101851.25;5133024;27;20481;-62
2022/07/23 08:17:37;;;;;;;6.05;4.30;;;;;;;20.34;57.00;101845.03;5134310;27;20474;-60
2022/07/23 08:20:04;;;;;;;5.15;3.88;;;;;;;20.40;57.68;101849.03;5134052;27;20031;-61
2022/07/23 08:22:54;;;;;;;7.05;4.97;;;;;;;20.46;58.36;101853.03;5115508;27;20094;-61
2022/07/23 08:25:23;;;;;;;6.63;4.30;;;;;;;20.39;56.41;101858.13;5102654;27;20039;-60
2022/07/23 08:27:49;;;;;;;8.93;4.22;;;;;;;20.37;57.30;101862.81;5114565;27;20019;-61
2022/07/23 08:30:16;;;;;;;8.10;5.00;;;;;;;20.30;57.29;101865.22;5114248;27;20027;-60
2022/07/23 08:33:00;;;;;;;7.95;5.28;;;;;;;20.34;58.27;101865.78;5133704;27;20023;-59
2022/07/23 08:35:28;;;;;;;7.47;4.60;;;;;;;20.31;57.62;101866.91;5134347;27;20038;-59
2022/07/23 08:37:54;;;;;;;6.57;4.40;;;;;;;20.51;59.03;101873.25;5133058;27;20034;-60
2022/07/23 08:40:20;;;;;;;5.10;4.20;;;;;;;20.63;57.28;101865.94;5131817;27;20031;-58
2022/07/23 08:42:52;;;;;;;7.45;5.00;;;;;;;20.56;58.52;101867.47;5133847;27;20128;-60
2022/07/23 08:45:21;;;;;;;6.88;4.78;;;;;;;20.68;57.59;101876.31;5133318;27;21647;-59
2022/07/23 08:47:55;;;;;;;9.38;5.40;;;;;;;20.73;57.37;101876.78;5132837;27;20042;-60
2022/07/23 08:50:24;;;;;;;5.43;4.60;;;;;;;20.88;57.91;101869.97;5114449;27;20027;-60
2022/07/23 08:52:52;;;;;;;12.02;4.57;;;;;;;20.89;59.38;101871.69;5130944;27;20458;-60
2022/07/23 08:55:20;;;;;;;9.70;4.65;;;;;;;21.00;58.49;101873.41;5132929;27;20560;-60
2022/07/23 08:57:51;;;;;;;6.20;4.53;;;;;;;20.95;58.39;101878.41;5133483;27;20095;-59
2022/07/23 09:00:18;;;;;;;6.10;4.80;;;;;;;21.01;56.57;101885.97;5132241;27;20038;-60
2022/07/23 09:02:47;;;;;;;6.75;4.40;;;;;;;21.09;57.69;101878.00;5133147;27;20366;-60
2022/07/23 09:05:14;;;;;;;8.63;4.68;;;;;;;21.14;57.17;101873.00;5133197;27;20031;-59
2022/07/23 09:08:21;;;;;;;6.65;4.60;;;;;;;21.10;56.92;101877.84;5131994;27;20090;-58
2022/07/23 09:10:58;;;;;;;7.75;4.30;;;;;;;21.01;57.68;101862.47;5130131;27;20027;-59
2022/07/23 09:13:32;;;;;;;7.80;4.15;;;;;;;21.06;57.36;101871.03;5132701;27;20047;-59
2022/07/23 09:16:07;;;;;;;8.48;4.93;;;;;;;21.06;57.72;101860.19;5130623;27;20383;-59
2022/07/23 09:18:43;;;;;;;6.35;4.10;;;;;;;21.10;58.34;101861.63;5114047;27;20054;-59
2022/07/23 09:21:20;;;;;;;6.03;4.95;;;;;;;21.24;58.49;101854.09;5133268;27;20023;-59
2022/07/23 09:24:04;;;;;;;8.05;4.47;;;;;;;21.31;58.07;101855.22;5114432;27;20027;-64
2022/07/23 09:26:44;;;;;;;12.73;4.43;;;;;;;21.39;57.55;101852.69;5132712;27;20027;-58
2022/07/23 09:29:17;;;;;;;8.70;4.97;;;;;;;21.29;56.79;101846.38;5131452;27;20053;-60
2022/07/23 09:32:04;;;;;;;5.80;4.10;;;;;;;21.44;57.27;101855.84;5133100;27;20102;-60
2022/07/23 09:34:41;;;;;;;8.30;4.93;;;;;;;21.54;57.35;101858.53;5129120;27;20023;-60
2022/07/23 09:37:12;;;;;;;5.90;3.85;;;;;;;21.67;57.07;101856.38;5114308;27;20115;-60
2022/07/23 09:39:37;;;;;;;7.63;4.40;;;;;;;21.57;55.96;101847.41;5113100;27;20052;-61
2022/07/23 09:42:14;;;;;;;6.13;4.15;;;;;;;21.55;55.46;101869.19;5094223;27;20039;-60
2022/07/23 09:44:46;;;;;;;4.75;3.72;;;;;;;21.56;55.36;101872.78;5131366;27;20023;-59
2022/07/23 09:47:14;;;;;;;5.97;3.80;;;;;;;21.63;55.55;101871.22;5132647;27;20034;-60
2022/07/23 09:49:40;;;;;;;8.07;3.40;;;;;;;21.74;56.19;101868.34;5132488;27;20083;-59
2022/07/23 09:52:07;;;;;;;7.85;4.80;;;;;;;21.73;55.98;101863.06;5132066;27;20497;-59
2022/07/23 09:54:38;;;;;;;7.05;4.13;;;;;;;21.89;56.49;101867.91;5110946;27;20035;-60
2022/07/23 09:57:13;;;;;;;5.55;4.25;;;;;;;22.06;56.14;101867.16;5113835;27;20030;-60
2022/07/23 09:59:39;;;;;;;10.07;4.22;;;;;;;22.06;55.77;101867.16;5131443;27;20118;-58
2022/07/23 10:02:09;;;;;;;5.60;4.45;;;;;;;22.13;55.31;101868.25;5132290;27;20157;-62
2022/07/23 10:04:38;;;;;;;7.88;4.28;;;;;;;22.29;55.07;101866.81;5132420;27;20026;-65
2022/07/23 10:07:05;;;;;;;7.20;4.40;;;;;;;22.34;54.05;101869.94;5131592;27;20035;-65
2022/07/23 10:09:33;;;;;;;5.20;3.97;;;;;;;22.30;54.69;101872.09;5131128;27;20269;-61
2022/07/23 10:14:32;;;;;;;6.85;4.30;;;;;;;22.39;53.49;101870.34;5130051;27;20054;-60
2022/07/23 10:16:58;;;;;;;6.57;4.00;;;;;;;22.41;53.96;101858.34;5132201;27;20023;-61
2022/07/23 10:19:27;;;;;;;3.90;3.35;;;;;;;22.40;53.45;101862.03;5113734;27;20201;-61
2022/07/23 10:21:59;;;;;;;5.60;3.25;;;;;;;22.56;52.66;101869.56;5113454;27;20083;-59
2022/07/23 10:25:02;;;;;;;6.10;3.67;;;;;;;22.61;52.22;101863.66;5131390;27;20103;-58
2022/07/23 10:27:34;;;;;;;4.47;3.28;;;;;;;22.58;50.95;101863.97;5129915;27;20023;-59
2022/07/23 10:30:14;;;;;;;5.97;3.22;;;;;;;22.71;51.26;101871.72;5128714;27;20019;-59
2022/07/23 10:33:10;;;;;;;5.22;3.83;;;;;;;22.74;52.13;101866.88;5132146;27;20095;-60
2022/07/23 10:35:53;;;;;;;8.20;4.13;;;;;;;22.88;53.15;101863.66;5130350;27;20118;-60
2022/07/23 10:38:25;;;;;;;6.03;3.85;;;;;;;22.87;52.19;101870.06;5130828;27;20397;-59
2022/07/23 10:40:58;;;;;;;6.57;3.75;;;;;;;22.92;52.03;101874.22;5129891;27;20027;-59
2022/07/23 10:43:25;;;;;;;4.88;3.33;;;;;;;22.96;51.58;101870.22;5131651;27;20026;-59
2022/07/23 10:45:52;;;;;;;4.88;3.47;;;;;;;23.08;52.68;101867.09;5131163;27;20033;-59
2022/07/23 10:48:18;;;;;;;10.85;4.38;;;;;;;23.14;53.51;101860.22;5130419;27;20051;-59
2022/07/23 10:51:09;;;;;;;8.30;3.38;;;;;;;23.20;52.16;101870.44;5130529;27;20035;-59
2022/07/23 10:53:49;;;;;;;4.85;3.40;;;;;;;23.23;52.35;101870.13;5131189;27;20059;-59
2022/07/23 10:56:15;;;;;;;7.40;3.08;;;;;;;23.31;49.58;101866.66;5128972;27;20031;-59
2022/07/23 10:58:49;;;;;;;6.82;3.03;;;;;;;23.35;51.49;101863.50;5112372;28;20037;-60
2022/07/23 11:01:37;;;;;;;7.88;2.78;;;;;;;23.47;51.26;101866.81;5130695;28;20023;-59
2022/07/23 11:04:07;;;;;;;4.65;2.42;;;;;;;23.50;50.49;101868.34;5131288;28;20068;-59
2022/07/23 11:07:02;;;;;;;8.73;3.88;;;;;;;23.61;50.76;101864.53;5130928;28;20030;-59
2022/07/23 11:09:38;;;;;;;3.83;2.70;;;;;;;23.71;50.67;101871.63;5108782;28;20031;-60
2022/07/23 11:12:12;;;;;;;3.95;2.63;;;;;;;23.74;49.12;101868.59;5130997;28;20034;-59
2022/07/23 11:15:00;;;;;;;3.63;2.92;;;;;;;23.74;49.21;101868.59;5131007;28;20027;-60
2022/07/23 11:17:26;;;;;;;4.80;2.97;;;;;;;23.68;48.02;101868.31;5128938;28;20048;-59
2022/07/23 11:20:10;;;;;;;3.90;3.17;;;;;;;23.60;49.20;101862.84;5132499;27;20023;-59
2022/07/23 11:22:39;;;;;;;4.85;2.83;;;;;;;23.57;49.22;101861.28;5117154;27;20031;-59
2022/07/23 11:25:06;;;;;;;2.58;2.22;;;;;;;23.69;49.57;101860.03;5131566;27;20075;-59
2022/07/23 11:27:39;;;;;;;6.43;2.65;;;;;;;23.76;49.58;101863.00;5115800;27;20027;-59